Celebrity Constellation — 9HJB9 — position and weather

sailwx.info

Track history (hours):
 
Tides and Currents Weather Stations Pressure Air Temp Water Temp Dewpoint Dewpoint Depression Visibility Wind Speed Wind Dir Waves Ship Positions

Celebrity Constellation

Last reported at 2019-Jul-16 10:30 UTC. Time now 2019-Jul-16 10:47 UTC.
Position N 39°27' W 000°18'.

Length 294 m; draft 8.3 m.

Type: Passenger vessel. MMSI: 249046000.

Date/timePositionNaut miles runAvg speedWind from/ knotsBaromVisibWave heightAir tempDewpointWater temp
2019-Jul-16 10:30N 39°27' W 000°18'0 0.0
2019-Jul-16 09:59N 39°27' W 000°18'0 0.0
2019-Jul-16 09:29N 39°27' W 000°18'0 0.0
2019-Jul-16 08:59N 39°27' W 000°18'0 0.0
2019-Jul-16 08:29N 39°27' W 000°18'0 0.0
2019-Jul-16 07:59N 39°27' W 000°18'0 0.0
2019-Jul-16 07:30N 39°27' W 000°18'0 0.0
2019-Jul-16 07:00N 39°27' W 000°18'0 0.0
2019-Jul-16 06:27N 39°27' W 000°18'0 0.0
2019-Jul-16 06:00N 39°27' W 000°18'281856.9
2019-Jul-16 06:00N 39°24' E 000°18'2853.1 320 / 71024.827.0 27.023.025.0
2019-Jul-16 05:27N 39°27' W 000°18'0 0.0
2019-Jul-16 05:00N 39°27' W 000°18'0 0.3
2019-Jul-16 04:30N 39°27' W 000°18'2 4.5
2019-Jul-16 04:00N 39°26' W 000°17'510.2
2019-Jul-16 03:30N 39°28' W 000°11'510.3
2019-Jul-16 03:00N 39°32' W 000°07'87 9.6
2019-Jul-15 18:00N 40°30' E 001°18'3810.0 150 / 111020.827.0 28.017.425.0
2019-Jul-15 14:09N 40°55' E 001°56'213.8
2019-Jul-15 14:00N 40°54' E 001°54'478.8 050 / 61020.827.0 25.015.424.0
2019-Jul-15 13:56N 40°57' E 001°58'410.3
2019-Jul-15 13:30N 40°60' E 002°03'510.1
2019-Jul-15 13:00N 41°03' E 002°08'510.0
2019-Jul-15 12:30N 41°06' E 002°13'5 9.9
2019-Jul-15 12:00N 41°09' E 002°18'5 9.8
2019-Jul-15 11:30N 41°12' E 002°23'5 9.7
2019-Jul-15 11:00N 41°15' E 002°28'5 9.5
2019-Jul-15 10:30N 41°18' E 002°33'5 9.2
2019-Jul-15 10:00N 41°22' E 002°37'4 8.8
2019-Jul-15 09:30N 41°25' E 002°42'5 8.9
2019-Jul-15 08:58N 41°28' E 002°47'4 9.0
2019-Jul-15 08:29N 41°30' E 002°51'19 7.8
2019-Jul-15 06:00N 41°42' E 003°12'2713.7 340 / 251019.710.8 25.011.324.0
2019-Jul-15 04:00N 42°06' E 003°30'70 9.5 320 / 71019.710.8 27.013.124.0
2019-Jul-14 20:40N 43°13' E 003°54'2 9.7
2019-Jul-14 20:30N 43°15' E 003°53'5 9.7
2019-Jul-14 20:00N 43°19' E 003°49'4 8.8
2019-Jul-14 19:30N 43°23' E 003°46'2 4.8
2019-Jul-14 18:59N 43°24' E 003°43'0 0.3
2019-Jul-14 18:25N 43°24' E 003°43'1 1.6
2019-Jul-14 18:00N 43°24' E 003°42'137.0 160 / 121017.727.0 27.015.120.0
2019-Jul-14 17:58N 43°24' E 003°43'0 0.0
2019-Jul-14 17:25N 43°24' E 003°43'0 0.0
2019-Jul-14 16:49N 43°24' E 003°43'0 0.0
2019-Jul-14 16:19N 43°24' E 003°43'0 0.0
2019-Jul-14 15:49N 43°24' E 003°43'0 0.0
2019-Jul-14 15:21N 43°24' E 003°43'0 0.0
2019-Jul-14 14:57N 43°24' E 003°43'0 0.0
2019-Jul-14 14:30N 43°24' E 003°43'1 1.3
2019-Jul-14 14:00N 43°24' E 003°42'1 5.1 200 / 101020.827.0 29.0 7.624.0
2019-Jul-14 13:51N 43°24' E 003°43'0 0.0
2019-Jul-14 13:15N 43°24' E 003°43'1 2.6
2019-Jul-14 13:00N 43°24' E 003°42'1 0.6 200 / 101020.827.0 29.0 7.624.0
2019-Jul-14 11:54N 43°24' E 003°43'0 0.0
2019-Jul-14 11:30N 43°24' E 003°43'0 0.0
2019-Jul-14 11:00N 43°24' E 003°43'0 0.0
2019-Jul-14 10:30N 43°24' E 003°43'0 0.0
2019-Jul-14 10:00N 43°24' E 003°43'0 0.0
2019-Jul-14 08:30N 43°24' E 003°43'1 0.5
2019-Jul-14 07:00N 43°24' E 003°42'1 0.3 330 / 71021.827.0 26.0 6.419.0
2019-Jul-14 04:43N 43°24' E 003°43'0 0.1
2019-Jul-14 04:29N 43°24' E 003°43'3 6.7
2019-Jul-14 04:00N 43°23' E 003°47'4 8.8
2019-Jul-14 03:30N 43°19' E 003°50'5 9.2
2019-Jul-14 03:00N 43°17' E 003°56'5 9.4
2019-Jul-14 02:29N 43°15' E 004°02'5 9.6
2019-Jul-14 02:00N 43°13' E 004°08'2136.9
2019-Jul-14 02:00N 43°12' E 004°06'72 9.1 350 / 511020.810.8 25.013.023.0
2019-Jul-13 18:00N 42°54' E 005°42'1511.0 320 / 301018.710.8 26.0 7.318.0
2019-Jul-13 16:37N 43°05' E 005°56'1 7.6
2019-Jul-13 16:30N 43°06' E 005°55'1 1.5
2019-Jul-13 15:58N 43°06' E 005°54'0 0.0
2019-Jul-13 15:28N 43°06' E 005°54'0 0.0
2019-Jul-13 14:58N 43°06' E 005°54'0 0.0
2019-Jul-13 14:28N 43°06' E 005°54'0 0.0
2019-Jul-13 14:00N 43°06' E 005°54'029.8
2019-Jul-13 14:00N 43°06' E 005°54'0 0.6 260 / 241020.810.8 29.011.217.0
2019-Jul-13 13:30N 43°06' E 005°54'0 0.0
2019-Jul-13 13:00N 43°06' E 005°54'0 0.0
2019-Jul-13 12:28N 43°06' E 005°54'0 0.0
2019-Jul-13 11:59N 43°06' E 005°54'0 0.0
2019-Jul-13 11:29N 43°06' E 005°54'0 0.0
2019-Jul-13 10:59N 43°06' E 005°54'0 0.0
2019-Jul-13 10:29N 43°06' E 005°54'0 0.0
2019-Jul-13 09:59N 43°06' E 005°54'0 0.0
2019-Jul-13 09:28N 43°06' E 005°54'0 0.0
2019-Jul-13 08:58N 43°06' E 005°54'0 0.0
2019-Jul-13 08:28N 43°06' E 005°54'0 0.0
2019-Jul-13 07:58N 43°06' E 005°54'0 0.0
2019-Jul-13 07:28N 43°06' E 005°54'0 0.0
2019-Jul-13 07:00N 43°06' E 005°54'0 0.0
2019-Jul-13 06:30N 43°06' E 005°54'0 0.0
2019-Jul-13 06:00N 43°06' E 005°54'053.8
2019-Jul-13 06:00N 43°06' E 005°54'0 0.6 290 / 231020.827.0 27.0 9.818.0
2019-Jul-13 05:30N 43°06' E 005°54'0 0.0
2019-Jul-13 05:00N 43°06' E 005°54'0 0.0
2019-Jul-13 04:30N 43°06' E 005°54'1 1.6
2019-Jul-13 04:00N 43°06' E 005°55'17 8.6
2019-Jul-13 02:00N 42°54' E 006°12'12 9.4 270 / 521019.710.8 24.019.226.0
2019-Jul-13 00:40N 42°56' E 006°29'1 9.8
2019-Jul-13 00:31N 42°56' E 006°31'6 9.5
2019-Jul-12 23:55N 42°57' E 006°38'4 9.6
2019-Jul-12 23:31N 42°58' E 006°44'5 9.3
2019-Jul-12 23:01N 42°59' E 006°50'5 9.4
2019-Jul-12 22:31N 43°02' E 006°55'5 9.2
2019-Jul-12 22:00N 43°05' E 007°00'5 9.2
2019-Jul-12 21:30N 43°07' E 007°05'5 9.2
2019-Jul-12 21:00N 43°10' E 007°10'5 9.4
2019-Jul-12 20:31N 43°14' E 007°14'5 9.4
2019-Jul-12 20:00N 43°18' E 007°17'5 9.3
2019-Jul-12 19:30N 43°22' E 007°20'4 8.9
2019-Jul-12 19:01N 43°27' E 007°22'5 9.5
2019-Jul-12 18:30N 43°31' E 007°21'5 9.4
2019-Jul-12 18:01N 43°36' E 007°20'6349.4
2019-Jul-12 18:00N 43°30' E 007°18'1021.6 070 / 101020.827.0 27.021.126.0
2019-Jul-12 17:30N 43°40' E 007°19'1 1.4
2019-Jul-12 16:56N 43°41' E 007°19'0 0.0
2019-Jul-12 16:29N 43°41' E 007°19'0 0.0
2019-Jul-12 15:59N 43°41' E 007°19'0 0.0
2019-Jul-12 15:29N 43°41' E 007°19'0 0.2
2019-Jul-12 15:02N 43°41' E 007°19'0 1.7
2019-Jul-12 14:59N 43°41' E 007°19'0 0.0
2019-Jul-12 14:29N 43°41' E 007°19'510.7
2019-Jul-12 14:00N 43°36' E 007°18'5868.0 130 / 41021.827.0 27.018.426.0
2019-Jul-12 13:59N 43°41' E 007°19'0 0.0
2019-Jul-12 13:29N 43°41' E 007°19'0 0.0
2019-Jul-12 12:59N 43°41' E 007°19'0 0.0
2019-Jul-12 12:28N 43°41' E 007°19'0 0.1
2019-Jul-12 12:18N 43°41' E 007°19'0 0.1
2019-Jul-12 12:00N 43°41' E 007°19'5617.5
2019-Jul-12 12:00N 43°36' E 007°18'5407.1 130 / 41021.827.0 27.018.426.0
2019-Jul-12 11:59N 43°41' E 007°19'0 0.0
2019-Jul-12 11:30N 43°41' E 007°19'0 1.3
2019-Jul-12 11:29N 43°41' E 007°19'0 0.0
2019-Jul-12 11:00N 43°41' E 007°19'0 6.5
2019-Jul-12 11:00N 43°41' E 007°19'0 0.0
2019-Jul-12 10:28N 43°41' E 007°19'0 0.9
2019-Jul-12 10:27N 43°41' E 007°19'0 0.0
2019-Jul-12 10:00N 43°41' E 007°19'0 0.3
2019-Jul-12 09:56N 43°41' E 007°19'0 0.1
2019-Jul-12 09:30N 43°41' E 007°19'0 0.4
2019-Jul-12 09:26N 43°41' E 007°19'0 0.0
2019-Jul-12 09:15N 43°41' E 007°19'0 0.1
2019-Jul-12 09:00N 43°41' E 007°19'0 0.8
2019-Jul-12 08:58N 43°41' E 007°19'0 0.8
2019-Jul-12 08:55N 43°41' E 007°19'0 0.1
2019-Jul-12 08:30N 43°41' E 007°19'0 1.4
2019-Jul-12 08:29N 43°41' E 007°19'0 0.1
2019-Jul-12 08:10N 43°41' E 007°19'0 0.2
2019-Jul-12 08:00N 43°41' E 007°19'0 2.2
2019-Jul-12 07:59N 43°41' E 007°19'0 1.5
2019-Jul-12 07:56N 43°41' E 007°19'0 0.2
2019-Jul-12 07:31N 43°41' E 007°19'026.8
2019-Jul-12 07:30N 43°42' E 007°19'0188.2
2019-Jul-12 07:30N 43°41' E 007°19'0 0.1
2019-Jul-12 07:00N 43°41' E 007°19'091.9
2019-Jul-12 07:00N 43°41' E 007°19'0 7.6
2019-Jul-12 07:00N 43°41' E 007°19'0 0.1
2019-Jul-12 06:30N 43°41' E 007°19'0 2.6
2019-Jul-12 06:29N 43°41' E 007°19'0 3.6
2019-Jul-12 06:27N 43°41' E 007°19'511.8
2019-Jul-12 06:00N 43°36' E 007°18'5524.0 070 / 61021.827.0 26.019.625.0
2019-Jul-12 05:59N 43°41' E 007°19'0 0.9
2019-Jul-12 05:55N 43°41' E 007°19'120.6
2019-Jul-12 05:52N 43°42' E 007°19'0 0.5
2019-Jul-12 05:29N 43°42' E 007°19'1243.0
2019-Jul-12 05:29N 43°41' E 007°19'0 1.8
2019-Jul-12 05:25N 43°41' E 007°19'0 0.3
2019-Jul-12 04:59N 43°41' E 007°19'021.6
2019-Jul-12 04:59N 43°41' E 007°19'0 0.1
2019-Jul-12 04:28N 43°41' E 007°19'0 0.8
2019-Jul-12 04:00N 43°41' E 007°19'3 6.9
2019-Jul-12 03:30N 43°38' E 007°22'3 6.1
2019-Jul-12 03:00N 43°38' E 007°26'3 6.0
2019-Jul-12 02:31N 43°37' E 007°30'1 2.3
2019-Jul-12 02:00N 43°36' E 007°30'510.8 140 / 81021.810.8 25.021.426.0
2019-Jul-12 01:30N 43°35' E 007°37'2 4.7
2019-Jul-12 01:00N 43°35' E 007°40'2 4.7
2019-Jul-12 00:31N 43°34' E 007°43'2 4.7
2019-Jul-12 00:01N 43°33' E 007°46'3 6.7
2019-Jul-11 23:30N 43°34' E 007°51'4 7.0
2019-Jul-11 23:01N 43°35' E 007°56'4 7.0
2019-Jul-11 22:30N 43°36' E 008°00'4 7.2
2019-Jul-11 22:00N 43°37' E 008°05'2 4.6
2019-Jul-11 21:30N 43°38' E 008°08'2 3.7
2019-Jul-11 21:01N 43°38' E 008°10'2 3.9
2019-Jul-11 20:30N 43°39' E 008°13'2 3.9
2019-Jul-11 20:00N 43°40' E 008°15'3 5.6
2019-Jul-11 19:29N 43°42' E 008°19'4 7.4
2019-Jul-11 19:00N 43°44' E 008°22'4 7.4
2019-Jul-11 18:30N 43°46' E 008°26'4 7.3
2019-Jul-11 18:00N 43°49' E 008°30'8490.4
2019-Jul-11 18:00N 43°42' E 008°24'1224.0 150 / 21021.810.8 25.022.724.0
2019-Jul-11 17:30N 43°51' E 008°34'4 7.1
2019-Jul-11 17:00N 43°53' E 008°38'3 7.0
2019-Jul-11 16:30N 43°55' E 008°42'4 7.0
2019-Jul-11 16:00N 43°58' E 008°45'2 4.7
2019-Jul-11 15:30N 43°59' E 008°48'2 3.6
2019-Jul-11 15:00N 44°00' E 008°50'2 3.1
2019-Jul-11 14:30N 43°60' E 008°52'2 3.3
2019-Jul-11 14:00N 43°58' E 008°53'2100.8
2019-Jul-11 14:00N 44°00' E 008°54'3 5.7 120 / 271023.810.8 24.013.026.0
2019-Jul-11 13:31N 43°57' E 008°55'2 3.3
2019-Jul-11 13:00N 43°56' E 008°57'1 2.7
2019-Jul-11 12:30N 43°56' E 008°59'1 2.9
2019-Jul-11 12:00N 43°57' E 009°00'1 2.9
2019-Jul-11 11:30N 43°58' E 009°02'1 2.9
2019-Jul-11 11:00N 43°58' E 009°04'1 2.9
2019-Jul-11 10:30N 43°59' E 009°05'1 2.9
2019-Jul-11 10:00N 44°00' E 009°07'1 2.8
2019-Jul-11 09:30N 44°01' E 009°09'2 3.9
2019-Jul-11 09:00N 44°02' E 009°11'2 3.2
2019-Jul-11 08:30N 44°02' E 009°09'2 3.0
2019-Jul-11 08:00N 44°02' E 009°07'1 2.9
2019-Jul-11 07:30N 44°02' E 009°04'1 2.9
2019-Jul-11 07:00N 44°02' E 009°02'2 3.2
2019-Jul-11 06:30N 44°02' E 009°00'2 3.9
2019-Jul-11 06:00N 44°01' E 008°59'3213.3
2019-Jul-11 06:00N 44°00' E 008°54'2 4.9 130 / 171013.727.0 25.015.324.0
2019-Jul-11 05:30N 43°60' E 008°57'2 3.1
2019-Jul-11 05:00N 43°58' E 008°56'2 3.2
2019-Jul-11 04:30N 43°57' E 008°55'2 3.3
2019-Jul-11 04:00N 43°55' E 008°55'2 3.3
2019-Jul-11 03:31N 43°54' E 008°54'2 3.3
2019-Jul-11 03:00N 43°52' E 008°53'2 3.2
2019-Jul-11 02:30N 43°51' E 008°51'1 2.7
2019-Jul-11 02:00N 43°51' E 008°49'5283.5
2019-Jul-11 02:00N 43°48' E 008°54'612.6 120 / 41021.810.8 26.020.426.0
2019-Jul-11 01:30N 43°52' E 008°48'2 3.6
2019-Jul-11 01:00N 43°54' E 008°48'2 3.9
2019-Jul-11 00:30N 43°56' E 008°49'2 3.9
2019-Jul-11 00:00N 43°58' E 008°50'2 4.2
2019-Jul-10 23:30N 43°60' E 008°51'3 6.4
2019-Jul-10 23:00N 44°03' E 008°53'4 7.5
2019-Jul-10 22:30N 44°05' E 008°57'4 7.1
2019-Jul-10 22:00N 44°07' E 009°01'3 6.9
2019-Jul-10 21:30N 44°09' E 009°05'3 5.9
2019-Jul-10 21:01N 44°11' E 009°08'3 5.9
2019-Jul-10 20:30N 44°13' E 009°11'3 5.8
2019-Jul-10 20:00N 44°15' E 009°14'3208.4
2019-Jul-10 20:00N 44°12' E 009°12'510.8 280 / 51019.710.8 29.016.926.2
2019-Jul-10 19:30N 44°17' E 009°15'2 3.9
2019-Jul-10 19:00N 44°18' E 009°14'0 0.2
2019-Jul-10 18:25N 44°18' E 009°14'0 0.0
2019-Jul-10 17:58N 44°18' E 009°14'0 0.0
2019-Jul-10 17:28N 44°18' E 009°14'0 0.0
2019-Jul-10 16:55N 44°18' E 009°14'0 0.0
2019-Jul-10 16:25N 44°18' E 009°14'0 0.0
2019-Jul-10 15:58N 44°18' E 009°14'0 0.0
2019-Jul-10 15:28N 44°18' E 009°14'0 0.0
2019-Jul-10 14:58N 44°18' E 009°14'0 0.0
2019-Jul-10 14:19N 44°18' E 009°14'1 4.4
2019-Jul-10 14:00N 44°18' E 009°12'163.7 240 / 161018.710.8 28.016.926.0
2019-Jul-10 13:58N 44°18' E 009°14'0 0.0
2019-Jul-10 13:28N 44°18' E 009°14'0 0.0
2019-Jul-10 12:58N 44°18' E 009°14'173230.9
2019-Jul-10 12:13N 42°06' E 011°47'173691.7
2019-Jul-10 11:58N 44°18' E 009°14'0 0.1
2019-Jul-10 11:18N 44°18' E 009°14'0 0.0
2019-Jul-10 11:00N 44°18' E 009°14'0 0.0
2019-Jul-10 10:30N 44°18' E 009°14'1 2.8
2019-Jul-10 10:00N 44°18' E 009°12'125.8 240 / 81018.710.8 28.016.926.0
2019-Jul-10 09:56N 44°18' E 009°14'0 0.0
2019-Jul-10 09:26N 44°18' E 009°14'0 0.0
2019-Jul-10 08:59N 44°18' E 009°14'0 0.0
2019-Jul-10 08:30N 44°18' E 009°14'0 0.0
2019-Jul-10 07:58N 44°18' E 009°14'0 0.0
2019-Jul-10 07:30N 44°18' E 009°14'0 0.0
2019-Jul-10 07:00N 44°18' E 009°14'0 0.1
2019-Jul-10 06:30N 44°18' E 009°14'0 0.0
2019-Jul-10 06:00N 44°18' E 009°14'189.8
2019-Jul-10 06:00N 44°18' E 009°12'1 2.9 040 / 51017.710.8 29.017.126.0
2019-Jul-10 05:30N 44°18' E 009°14'0 0.2
2019-Jul-10 05:00N 44°18' E 009°14'4 7.7
2019-Jul-10 04:30N 44°15' E 009°17'5 9.5
2019-Jul-10 04:00N 44°11' E 009°19'5 9.6
2019-Jul-10 03:30N 44°06' E 009°21'5 9.4
2019-Jul-10 03:00N 44°02' E 009°23'4 8.7
2019-Jul-10 02:30N 43°58' E 009°25'4 8.7
2019-Jul-10 02:00N 43°54' E 009°28'3159.5
2019-Jul-10 02:00N 43°54' E 009°24'612.9 090 / 171018.710.8 26.019.926.0
2019-Jul-10 01:30N 43°50' E 009°30'4 8.7
2019-Jul-10 01:00N 43°46' E 009°33'4 8.9
2019-Jul-10 00:30N 43°42' E 009°35'4 8.9
2019-Jul-10 00:00N 43°38' E 009°38'4 8.5
2019-Jul-09 23:30N 43°34' E 009°42'5 9.1
2019-Jul-09 23:00N 43°33' E 009°48'5 9.3
2019-Jul-09 22:30N 43°31' E 009°54'5 9.2
2019-Jul-09 22:00N 43°30' E 009°60'5 9.4
2019-Jul-09 21:30N 43°30' E 010°06'5 9.1
2019-Jul-09 21:00N 43°31' E 010°13'4 8.1
2019-Jul-09 20:30N 43°33' E 010°17'1 1.1
2019-Jul-09 20:00N 43°33' E 010°18'0 0.0
2019-Jul-09 19:29N 43°33' E 010°18'0 0.0
2019-Jul-09 18:58N 43°33' E 010°18'0 0.0
2019-Jul-09 18:30N 43°33' E 010°18'0 0.0
2019-Jul-09 18:00N 43°33' E 010°18'0 0.0
2019-Jul-09 17:30N 43°33' E 010°18'0 0.0
2019-Jul-09 17:00N 43°33' E 010°18'0 0.0
2019-Jul-09 16:30N 43°33' E 010°18'0 0.0
2019-Jul-09 15:59N 43°33' E 010°18'0 0.0
2019-Jul-09 15:29N 43°33' E 010°18'3 7.0
2019-Jul-09 15:00N 43°30' E 010°18'3274.9 180 / 101020.7 27.620.528.3
2019-Jul-09 14:59N 43°33' E 010°18'0 0.0
2019-Jul-09 14:28N 43°33' E 010°18'0 0.0
2019-Jul-09 14:00N 43°33' E 010°18'0 0.0
2019-Jul-09 13:29N 43°33' E 010°18'0 0.0
2019-Jul-09 12:59N 43°33' E 010°18'0 0.0
2019-Jul-09 12:29N 43°33' E 010°18'0 0.0
2019-Jul-09 11:59N 43°33' E 010°18'0 0.0
2019-Jul-09 11:29N 43°33' E 010°18'0 0.0
2019-Jul-09 10:58N 43°33' E 010°18'0 0.0
2019-Jul-09 10:28N 43°33' E 010°18'0 0.0
2019-Jul-09 09:58N 43°33' E 010°18'0 0.0
2019-Jul-09 09:25N 43°33' E 010°18'0 0.0
2019-Jul-09 08:58N 43°33' E 010°18'0 0.0
2019-Jul-09 08:28N 43°33' E 010°18'0 0.0
2019-Jul-09 07:55N 43°33' E 010°18'0 0.0
2019-Jul-09 07:30N 43°33' E 010°18'0 0.0
2019-Jul-09 07:00N 43°33' E 010°18'0 0.0
2019-Jul-09 06:29N 43°33' E 010°18'3 7.1
2019-Jul-09 06:00N 43°30' E 010°18'3206.2 160 / 51021.810.8 27.022.325.0
2019-Jul-09 05:59N 43°33' E 010°18'0 0.0
2019-Jul-09 05:28N 43°33' E 010°18'0 0.0
2019-Jul-09 04:59N 43°33' E 010°18'1 1.1
2019-Jul-09 04:30N 43°33' E 010°17'3 5.4
2019-Jul-09 04:01N 43°31' E 010°15'4 8.4
2019-Jul-09 03:30N 43°27' E 010°13'611.6
2019-Jul-09 03:01N 43°21' E 010°11'611.6
2019-Jul-09 02:30N 43°16' E 010°09'611.7
2019-Jul-09 02:01N 43°10' E 010°07'2133.4
2019-Jul-09 02:00N 43°12' E 010°06'816.1 090 / 141021.810.8 27.025.128.0
2019-Jul-09 01:30N 43°04' E 010°05'611.9
2019-Jul-09 01:00N 42°58' E 010°04'611.8
2019-Jul-09 00:30N 42°53' E 010°02'611.4
2019-Jul-09 00:00N 42°47' E 010°01'611.3
2019-Jul-08 23:31N 42°42' E 010°04'611.9
2019-Jul-08 23:00N 42°38' E 010°10'711.8
2019-Jul-08 22:27N 42°33' E 010°16'511.9
2019-Jul-08 22:01N 42°29' E 010°21'611.9
2019-Jul-08 21:31N 42°25' E 010°26'612.0
2019-Jul-08 21:00N 42°19' E 010°30'612.0
2019-Jul-08 20:30N 42°14' E 010°34'611.9
2019-Jul-08 20:00N 42°09' E 010°38'611.1
2019-Jul-08 19:29N 42°05' E 010°44'611.9
2019-Jul-08 19:01N 42°04' E 010°52'1111.2
2019-Jul-08 18:00N 42°00' E 011°06'414.4 190 / 211020.810.8 29.025.226.0
2019-Jul-08 17:42N 41°60' E 011°12'711.6
2019-Jul-08 17:07N 41°58' E 011°20'111.3
2019-Jul-08 17:00N 41°58' E 011°22'17 1.5
2019-Jul-08 06:00N 42°06' E 011°42'0 0.0 160 / 101020.810.8 28.023.523.0
2019-Jul-08 05:00N 42°06' E 011°42'46 7.6 070 / 61023.8 25.722.823.1
2019-Jul-07 23:00N 41°27' E 012°13'917.8
2019-Jul-07 22:30N 41°22' E 012°23'6017.5
2019-Jul-07 19:04N 40°51' E 013°32'10135.3
2019-Jul-07 19:00N 40°42' E 013°36'758.3 190 / 171021.810.8 28.023.026.0
2019-Jul-07 18:52N 40°49' E 013°36'717.7
2019-Jul-07 18:27N 40°44' E 013°43'817.7
2019-Jul-07 18:00N 40°39' E 013°51'917.5
2019-Jul-07 17:30N 40°39' E 014°03'917.3
2019-Jul-07 17:00N 40°44' E 014°11'713.7
2019-Jul-07 16:30N 40°50' E 014°17'1 2.2
2019-Jul-07 15:58N 40°50' E 014°16'0 0.0
2019-Jul-07 15:28N 40°50' E 014°16'0 0.0
2019-Jul-07 14:58N 40°50' E 014°16'0 0.0
2019-Jul-07 14:28N 40°50' E 014°16'4 7.6
2019-Jul-07 14:00N 40°48' E 014°12'450.0 210 / 101023.810.8 27.021.125.0
2019-Jul-07 13:55N 40°50' E 014°16'0 0.0
2019-Jul-07 13:28N 40°50' E 014°16'0 0.0
2019-Jul-07 12:58N 40°50' E 014°16'0 0.0
2019-Jul-07 12:28N 40°50' E 014°16'0 0.0
2019-Jul-07 11:58N 40°50' E 014°16'0 0.0
2019-Jul-07 11:22N 40°50' E 014°16'0 0.0
2019-Jul-07 10:58N 40°50' E 014°16'0 0.0
2019-Jul-07 10:28N 40°50' E 014°16'4 7.6
2019-Jul-07 10:00N 40°48' E 014°12'4162.4 210 / 101023.810.8 27.021.125.0
2019-Jul-07 09:58N 40°50' E 014°16'0 0.0
2019-Jul-07 09:28N 40°50' E 014°16'0 0.0
2019-Jul-07 08:58N 40°50' E 014°16'0 0.0
2019-Jul-07 08:28N 40°50' E 014°16'0 0.0
2019-Jul-07 07:58N 40°50' E 014°16'0 0.0
2019-Jul-07 07:30N 40°50' E 014°16'0 0.0
2019-Jul-07 07:00N 40°50' E 014°16'4276.5
2019-Jul-07 07:00N 40°48' E 014°12'4 7.4 140 / 41023.810.8 27.021.224.0
2019-Jul-07 06:30N 40°50' E 014°16'0 0.0
2019-Jul-07 06:00N 40°50' E 014°16'0 0.0
2019-Jul-07 05:30N 40°50' E 014°16'0 0.0
2019-Jul-07 05:00N 40°50' E 014°16'0 0.2
2019-Jul-07 04:30N 40°50' E 014°16'2 3.4
2019-Jul-07 04:00N 40°49' E 014°17'815.8
2019-Jul-07 03:30N 40°41' E 014°17'916.8
2019-Jul-07 02:59N 40°32' E 014°19'1616.9
2019-Jul-07 02:00N 40°17' E 014°28'3193.0
2019-Jul-07 02:00N 40°18' E 014°24'1121.8 310 / 141024.810.8 26.021.728.0
2019-Jul-07 01:30N 40°10' E 014°33'917.1
2019-Jul-07 00:59N 40°02' E 014°38'817.2
2019-Jul-07 00:30N 39°54' E 014°43'916.9
2019-Jul-06 23:58N 39°46' E 014°48'816.8
2019-Jul-06 23:30N 39°39' E 014°52'6216.9
2019-Jul-06 19:50N 38°43' E 015°27'617.0
2019-Jul-06 19:27N 38°38' E 015°30'817.0
2019-Jul-06 19:00N 38°30' E 015°34'3224.5
2019-Jul-06 19:00N 38°30' E 015°30'1020.3 330 / 31023.810.8 26.921.821.5
2019-Jul-06 18:30N 38°23' E 015°39'815.1
2019-Jul-06 18:00N 38°16' E 015°41'714.1
2019-Jul-06 17:30N 38°10' E 015°37'816.1
2019-Jul-06 17:00N 38°02' E 015°33'918.3
2019-Jul-06 16:31N 37°54' E 015°28'1018.2
2019-Jul-06 15:59N 37°45' E 015°23'  
Track history (hours):
 
Tides and Currents Weather Stations Pressure Air Temp Water Temp Dewpoint Dewpoint Depression Visibility Wind Speed Wind Dir Waves Ship Positions

Celebrity Constellation

Last reported at 2019-Jul-16 10:30 UTC. Time now 2019-Jul-16 10:47 UTC.
Position N 39°27' W 000°18'.

Length 294 m; draft 8.3 m.

Type: Passenger vessel. MMSI: 249046000.

Date/timePositionNaut miles runAvg speedWind from/ knotsBaromVisibWave heightAir tempDewpointWater temp
2019-Jul-16 10:30N 39°27' W 000°18'0 0.0
2019-Jul-16 09:59N 39°27' W 000°18'0 0.0
2019-Jul-16 09:29N 39°27' W 000°18'0 0.0
2019-Jul-16 08:59N 39°27' W 000°18'0 0.0
2019-Jul-16 08:29N 39°27' W 000°18'0 0.0
2019-Jul-16 07:59N 39°27' W 000°18'0 0.0
2019-Jul-16 07:30N 39°27' W 000°18'0 0.0
2019-Jul-16 07:00N 39°27' W 000°18'0 0.0
2019-Jul-16 06:27N 39°27' W 000°18'0 0.0
2019-Jul-16 06:00N 39°27' W 000°18'281856.9
2019-Jul-16 06:00N 39°24' E 000°18'2853.1 320 / 71024.827.0 27.023.025.0
2019-Jul-16 05:27N 39°27' W 000°18'0 0.0
2019-Jul-16 05:00N 39°27' W 000°18'0 0.3
2019-Jul-16 04:30N 39°27' W 000°18'2 4.5
2019-Jul-16 04:00N 39°26' W 000°17'510.2
2019-Jul-16 03:30N 39°28' W 000°11'510.3
2019-Jul-16 03:00N 39°32' W 000°07'87 9.6
2019-Jul-15 18:00N 40°30' E 001°18'3810.0 150 / 111020.827.0 28.017.425.0
2019-Jul-15 14:09N 40°55' E 001°56'213.8
2019-Jul-15 14:00N 40°54' E 001°54'478.8 050 / 61020.827.0 25.015.424.0
2019-Jul-15 13:56N 40°57' E 001°58'410.3
2019-Jul-15 13:30N 40°60' E 002°03'510.1
2019-Jul-15 13:00N 41°03' E 002°08'510.0
2019-Jul-15 12:30N 41°06' E 002°13'5 9.9
2019-Jul-15 12:00N 41°09' E 002°18'5 9.8
2019-Jul-15 11:30N 41°12' E 002°23'5 9.7
2019-Jul-15 11:00N 41°15' E 002°28'5 9.5
2019-Jul-15 10:30N 41°18' E 002°33'5 9.2
2019-Jul-15 10:00N 41°22' E 002°37'4 8.8
2019-Jul-15 09:30N 41°25' E 002°42'5 8.9
2019-Jul-15 08:58N 41°28' E 002°47'4 9.0
2019-Jul-15 08:29N 41°30' E 002°51'19 7.8
2019-Jul-15 06:00N 41°42' E 003°12'2713.7 340 / 251019.710.8 25.011.324.0
2019-Jul-15 04:00N 42°06' E 003°30'70 9.5 320 / 71019.710.8 27.013.124.0
2019-Jul-14 20:40N 43°13' E 003°54'2 9.7
2019-Jul-14 20:30N 43°15' E 003°53'5 9.7
2019-Jul-14 20:00N 43°19' E 003°49'4 8.8
2019-Jul-14 19:30N 43°23' E 003°46'2 4.8
2019-Jul-14 18:59N 43°24' E 003°43'0 0.3
2019-Jul-14 18:25N 43°24' E 003°43'1 1.6
2019-Jul-14 18:00N 43°24' E 003°42'137.0 160 / 121017.727.0 27.015.120.0
2019-Jul-14 17:58N 43°24' E 003°43'0 0.0
2019-Jul-14 17:25N 43°24' E 003°43'0 0.0
2019-Jul-14 16:49N 43°24' E 003°43'0 0.0
2019-Jul-14 16:19N 43°24' E 003°43'0 0.0
2019-Jul-14 15:49N 43°24' E 003°43'0 0.0
2019-Jul-14 15:21N 43°24' E 003°43'0 0.0
2019-Jul-14 14:57N 43°24' E 003°43'0 0.0
2019-Jul-14 14:30N 43°24' E 003°43'1 1.3
2019-Jul-14 14:00N 43°24' E 003°42'1 5.1 200 / 101020.827.0 29.0 7.624.0
2019-Jul-14 13:51N 43°24' E 003°43'0 0.0
2019-Jul-14 13:15N 43°24' E 003°43'1 2.6
2019-Jul-14 13:00N 43°24' E 003°42'1 0.6 200 / 101020.827.0 29.0 7.624.0
2019-Jul-14 11:54N 43°24' E 003°43'0 0.0
2019-Jul-14 11:30N 43°24' E 003°43'0 0.0
2019-Jul-14 11:00N 43°24' E 003°43'0 0.0
2019-Jul-14 10:30N 43°24' E 003°43'0 0.0
2019-Jul-14 10:00N 43°24' E 003°43'0 0.0
2019-Jul-14 08:30N 43°24' E 003°43'1 0.5
2019-Jul-14 07:00N 43°24' E 003°42'1 0.3 330 / 71021.827.0 26.0 6.419.0
2019-Jul-14 04:43N 43°24' E 003°43'0 0.1
2019-Jul-14 04:29N 43°24' E 003°43'3 6.7
2019-Jul-14 04:00N 43°23' E 003°47'4 8.8
2019-Jul-14 03:30N 43°19' E 003°50'5 9.2
2019-Jul-14 03:00N 43°17' E 003°56'5 9.4
2019-Jul-14 02:29N 43°15' E 004°02'5 9.6
2019-Jul-14 02:00N 43°13' E 004°08'2136.9
2019-Jul-14 02:00N 43°12' E 004°06'72 9.1 350 / 511020.810.8 25.013.023.0
2019-Jul-13 18:00N 42°54' E 005°42'1511.0 320 / 301018.710.8 26.0 7.318.0
2019-Jul-13 16:37N 43°05' E 005°56'1 7.6
2019-Jul-13 16:30N 43°06' E 005°55'1 1.5
2019-Jul-13 15:58N 43°06' E 005°54'0 0.0
2019-Jul-13 15:28N 43°06' E 005°54'0 0.0
2019-Jul-13 14:58N 43°06' E 005°54'0 0.0
2019-Jul-13 14:28N 43°06' E 005°54'0 0.0
2019-Jul-13 14:00N 43°06' E 005°54'029.8
2019-Jul-13 14:00N 43°06' E 005°54'0 0.6 260 / 241020.810.8 29.011.217.0
2019-Jul-13 13:30N 43°06' E 005°54'0 0.0
2019-Jul-13 13:00N 43°06' E 005°54'0 0.0
2019-Jul-13 12:28N 43°06' E 005°54'0 0.0
2019-Jul-13 11:59N 43°06' E 005°54'0 0.0
2019-Jul-13 11:29N 43°06' E 005°54'0 0.0
2019-Jul-13 10:59N 43°06' E 005°54'0 0.0
2019-Jul-13 10:29N 43°06' E 005°54'0 0.0
2019-Jul-13 09:59N 43°06' E 005°54'0 0.0
2019-Jul-13 09:28N 43°06' E 005°54'0 0.0
2019-Jul-13 08:58N 43°06' E 005°54'0 0.0
2019-Jul-13 08:28N 43°06' E 005°54'0 0.0
2019-Jul-13 07:58N 43°06' E 005°54'0 0.0
2019-Jul-13 07:28N 43°06' E 005°54'0 0.0
2019-Jul-13 07:00N 43°06' E 005°54'0 0.0
2019-Jul-13 06:30N 43°06' E 005°54'0 0.0
2019-Jul-13 06:00N 43°06' E 005°54'053.8
2019-Jul-13 06:00N 43°06' E 005°54'0 0.6 290 / 231020.827.0 27.0 9.818.0
2019-Jul-13 05:30N 43°06' E 005°54'0 0.0
2019-Jul-13 05:00N 43°06' E 005°54'0 0.0
2019-Jul-13 04:30N 43°06' E 005°54'1 1.6
2019-Jul-13 04:00N 43°06' E 005°55'17 8.6
2019-Jul-13 02:00N 42°54' E 006°12'12 9.4 270 / 521019.710.8 24.019.226.0
2019-Jul-13 00:40N 42°56' E 006°29'1 9.8
2019-Jul-13 00:31N 42°56' E 006°31'6 9.5
2019-Jul-12 23:55N 42°57' E 006°38'4 9.6
2019-Jul-12 23:31N 42°58' E 006°44'5 9.3
2019-Jul-12 23:01N 42°59' E 006°50'5 9.4
2019-Jul-12 22:31N 43°02' E 006°55'5 9.2
2019-Jul-12 22:00N 43°05' E 007°00'5 9.2
2019-Jul-12 21:30N 43°07' E 007°05'5 9.2
2019-Jul-12 21:00N 43°10' E 007°10'5 9.4
2019-Jul-12 20:31N 43°14' E 007°14'5 9.4
2019-Jul-12 20:00N 43°18' E 007°17'5 9.3
2019-Jul-12 19:30N 43°22' E 007°20'4 8.9
2019-Jul-12 19:01N 43°27' E 007°22'5 9.5
2019-Jul-12 18:30N 43°31' E 007°21'5 9.4
2019-Jul-12 18:01N 43°36' E 007°20'6349.4
2019-Jul-12 18:00N 43°30' E 007°18'1021.6 070 / 101020.827.0 27.021.126.0
2019-Jul-12 17:30N 43°40' E 007°19'1 1.4
2019-Jul-12 16:56N 43°41' E 007°19'0 0.0
2019-Jul-12 16:29N 43°41' E 007°19'0 0.0
2019-Jul-12 15:59N 43°41' E 007°19'0 0.0
2019-Jul-12 15:29N 43°41' E 007°19'0 0.2
2019-Jul-12 15:02N 43°41' E 007°19'0 1.7
2019-Jul-12 14:59N 43°41' E 007°19'0 0.0
2019-Jul-12 14:29N 43°41' E 007°19'510.7
2019-Jul-12 14:00N 43°36' E 007°18'5868.0 130 / 41021.827.0 27.018.426.0
2019-Jul-12 13:59N 43°41' E 007°19'0 0.0
2019-Jul-12 13:29N 43°41' E 007°19'0 0.0
2019-Jul-12 12:59N 43°41' E 007°19'0 0.0
2019-Jul-12 12:28N 43°41' E 007°19'0 0.1
2019-Jul-12 12:18N 43°41' E 007°19'0 0.1
2019-Jul-12 12:00N 43°41' E 007°19'5617.5
2019-Jul-12 12:00N 43°36' E 007°18'5407.1 130 / 41021.827.0 27.018.426.0
2019-Jul-12 11:59N 43°41' E 007°19'0 0.0
2019-Jul-12 11:30N 43°41' E 007°19'0 1.3
2019-Jul-12 11:29N 43°41' E 007°19'0 0.0
2019-Jul-12 11:00N 43°41' E 007°19'0 6.5
2019-Jul-12 11:00N 43°41' E 007°19'0 0.0
2019-Jul-12 10:28N 43°41' E 007°19'0 0.9
2019-Jul-12 10:27N 43°41' E 007°19'0 0.0
2019-Jul-12 10:00N 43°41' E 007°19'0 0.3
2019-Jul-12 09:56N 43°41' E 007°19'0 0.1
2019-Jul-12 09:30N 43°41' E 007°19'0 0.4
2019-Jul-12 09:26N 43°41' E 007°19'0 0.0
2019-Jul-12 09:15N 43°41' E 007°19'0 0.1
2019-Jul-12 09:00N 43°41' E 007°19'0 0.8
2019-Jul-12 08:58N 43°41' E 007°19'0 0.8
2019-Jul-12 08:55N 43°41' E 007°19'0 0.1
2019-Jul-12 08:30N 43°41' E 007°19'0 1.4
2019-Jul-12 08:29N 43°41' E 007°19'0 0.1
2019-Jul-12 08:10N 43°41' E 007°19'0 0.2
2019-Jul-12 08:00N 43°41' E 007°19'0 2.2
2019-Jul-12 07:59N 43°41' E 007°19'0 1.5
2019-Jul-12 07:56N 43°41' E 007°19'0 0.2
2019-Jul-12 07:31N 43°41' E 007°19'026.8
2019-Jul-12 07:30N 43°42' E 007°19'0188.2
2019-Jul-12 07:30N 43°41' E 007°19'0 0.1
2019-Jul-12 07:00N 43°41' E 007°19'091.9
2019-Jul-12 07:00N 43°41' E 007°19'0 7.6
2019-Jul-12 07:00N 43°41' E 007°19'0 0.1
2019-Jul-12 06:30N 43°41' E 007°19'0 2.6
2019-Jul-12 06:29N 43°41' E 007°19'0 3.6
2019-Jul-12 06:27N 43°41' E 007°19'511.8
2019-Jul-12 06:00N 43°36' E 007°18'5524.0 070 / 61021.827.0 26.019.625.0
2019-Jul-12 05:59N 43°41' E 007°19'0 0.9
2019-Jul-12 05:55N 43°41' E 007°19'120.6
2019-Jul-12 05:52N 43°42' E 007°19'0 0.5
2019-Jul-12 05:29N 43°42' E 007°19'1243.0
2019-Jul-12 05:29N 43°41' E 007°19'0 1.8
2019-Jul-12 05:25N 43°41' E 007°19'0 0.3
2019-Jul-12 04:59N 43°41' E 007°19'021.6
2019-Jul-12 04:59N 43°41' E 007°19'0 0.1
2019-Jul-12 04:28N 43°41' E 007°19'0 0.8
2019-Jul-12 04:00N 43°41' E 007°19'3 6.9
2019-Jul-12 03:30N 43°38' E 007°22'3 6.1
2019-Jul-12 03:00N 43°38' E 007°26'3 6.0
2019-Jul-12 02:31N 43°37' E 007°30'1 2.3
2019-Jul-12 02:00N 43°36' E 007°30'510.8 140 / 81021.810.8 25.021.426.0
2019-Jul-12 01:30N 43°35' E 007°37'2 4.7
2019-Jul-12 01:00N 43°35' E 007°40'2 4.7
2019-Jul-12 00:31N 43°34' E 007°43'2 4.7
2019-Jul-12 00:01N 43°33' E 007°46'3 6.7
2019-Jul-11 23:30N 43°34' E 007°51'4 7.0
2019-Jul-11 23:01N 43°35' E 007°56'4 7.0
2019-Jul-11 22:30N 43°36' E 008°00'4 7.2
2019-Jul-11 22:00N 43°37' E 008°05'2 4.6
2019-Jul-11 21:30N 43°38' E 008°08'2 3.7
2019-Jul-11 21:01N 43°38' E 008°10'2 3.9
2019-Jul-11 20:30N 43°39' E 008°13'2 3.9
2019-Jul-11 20:00N 43°40' E 008°15'3 5.6
2019-Jul-11 19:29N 43°42' E 008°19'4 7.4
2019-Jul-11 19:00N 43°44' E 008°22'4 7.4
2019-Jul-11 18:30N 43°46' E 008°26'4 7.3
2019-Jul-11 18:00N 43°49' E 008°30'8490.4
2019-Jul-11 18:00N 43°42' E 008°24'1224.0 150 / 21021.810.8 25.022.724.0
2019-Jul-11 17:30N 43°51' E 008°34'4 7.1
2019-Jul-11 17:00N 43°53' E 008°38'3 7.0
2019-Jul-11 16:30N 43°55' E 008°42'4 7.0
2019-Jul-11 16:00N 43°58' E 008°45'2 4.7
2019-Jul-11 15:30N 43°59' E 008°48'2 3.6
2019-Jul-11 15:00N 44°00' E 008°50'2 3.1
2019-Jul-11 14:30N 43°60' E 008°52'2 3.3
2019-Jul-11 14:00N 43°58' E 008°53'2100.8
2019-Jul-11 14:00N 44°00' E 008°54'3 5.7 120 / 271023.810.8 24.013.026.0
2019-Jul-11 13:31N 43°57' E 008°55'2 3.3
2019-Jul-11 13:00N 43°56' E 008°57'1 2.7
2019-Jul-11 12:30N 43°56' E 008°59'1 2.9
2019-Jul-11 12:00N 43°57' E 009°00'1 2.9
2019-Jul-11 11:30N 43°58' E 009°02'1 2.9
2019-Jul-11 11:00N 43°58' E 009°04'1 2.9
2019-Jul-11 10:30N 43°59' E 009°05'1 2.9
2019-Jul-11 10:00N 44°00' E 009°07'1 2.8
2019-Jul-11 09:30N 44°01' E 009°09'2 3.9
2019-Jul-11 09:00N 44°02' E 009°11'2 3.2
2019-Jul-11 08:30N 44°02' E 009°09'2 3.0
2019-Jul-11 08:00N 44°02' E 009°07'1 2.9
2019-Jul-11 07:30N 44°02' E 009°04'1 2.9
2019-Jul-11 07:00N 44°02' E 009°02'2 3.2
2019-Jul-11 06:30N 44°02' E 009°00'2 3.9
2019-Jul-11 06:00N 44°01' E 008°59'3213.3
2019-Jul-11 06:00N 44°00' E 008°54'2 4.9 130 / 171013.727.0 25.015.324.0
2019-Jul-11 05:30N 43°60' E 008°57'2 3.1
2019-Jul-11 05:00N 43°58' E 008°56'2 3.2
2019-Jul-11 04:30N 43°57' E 008°55'2 3.3
2019-Jul-11 04:00N 43°55' E 008°55'2 3.3
2019-Jul-11 03:31N 43°54' E 008°54'2 3.3
2019-Jul-11 03:00N 43°52' E 008°53'2 3.2
2019-Jul-11 02:30N 43°51' E 008°51'1 2.7
2019-Jul-11 02:00N 43°51' E 008°49'5283.5
2019-Jul-11 02:00N 43°48' E 008°54'612.6 120 / 41021.810.8 26.020.426.0
2019-Jul-11 01:30N 43°52' E 008°48'2 3.6
2019-Jul-11 01:00N 43°54' E 008°48'2 3.9
2019-Jul-11 00:30N 43°56' E 008°49'2 3.9
2019-Jul-11 00:00N 43°58' E 008°50'2 4.2
2019-Jul-10 23:30N 43°60' E 008°51'3 6.4
2019-Jul-10 23:00N 44°03' E 008°53'4 7.5
2019-Jul-10 22:30N 44°05' E 008°57'4 7.1
2019-Jul-10 22:00N 44°07' E 009°01'3 6.9
2019-Jul-10 21:30N 44°09' E 009°05'3 5.9
2019-Jul-10 21:01N 44°11' E 009°08'3 5.9
2019-Jul-10 20:30N 44°13' E 009°11'3 5.8
2019-Jul-10 20:00N 44°15' E 009°14'3208.4
2019-Jul-10 20:00N 44°12' E 009°12'510.8 280 / 51019.710.8 29.016.926.2
2019-Jul-10 19:30N 44°17' E 009°15'2 3.9
2019-Jul-10 19:00N 44°18' E 009°14'0 0.2
2019-Jul-10 18:25N 44°18' E 009°14'0 0.0
2019-Jul-10 17:58N 44°18' E 009°14'0 0.0
2019-Jul-10 17:28N 44°18' E 009°14'0 0.0
2019-Jul-10 16:55N 44°18' E 009°14'0 0.0
2019-Jul-10 16:25N 44°18' E 009°14'0 0.0
2019-Jul-10 15:58N 44°18' E 009°14'0 0.0
2019-Jul-10 15:28N 44°18' E 009°14'0 0.0
2019-Jul-10 14:58N 44°18' E 009°14'0 0.0
2019-Jul-10 14:19N 44°18' E 009°14'1 4.4
2019-Jul-10 14:00N 44°18' E 009°12'163.7 240 / 161018.710.8 28.016.926.0
2019-Jul-10 13:58N 44°18' E 009°14'0 0.0
2019-Jul-10 13:28N 44°18' E 009°14'0 0.0
2019-Jul-10 12:58N 44°18' E 009°14'173230.9
2019-Jul-10 12:13N 42°06' E 011°47'173691.7
2019-Jul-10 11:58N 44°18' E 009°14'0 0.1
2019-Jul-10 11:18N 44°18' E 009°14'0 0.0
2019-Jul-10 11:00N 44°18' E 009°14'0 0.0
2019-Jul-10 10:30N 44°18' E 009°14'1 2.8
2019-Jul-10 10:00N 44°18' E 009°12'125.8 240 / 81018.710.8 28.016.926.0
2019-Jul-10 09:56N 44°18' E 009°14'0 0.0
2019-Jul-10 09:26N 44°18' E 009°14'0 0.0
2019-Jul-10 08:59N 44°18' E 009°14'0 0.0
2019-Jul-10 08:30N 44°18' E 009°14'0 0.0
2019-Jul-10 07:58N 44°18' E 009°14'0 0.0
2019-Jul-10 07:30N 44°18' E 009°14'0 0.0
2019-Jul-10 07:00N 44°18' E 009°14'0 0.1
2019-Jul-10 06:30N 44°18' E 009°14'0 0.0
2019-Jul-10 06:00N 44°18' E 009°14'189.8
2019-Jul-10 06:00N 44°18' E 009°12'1 2.9 040 / 51017.710.8 29.017.126.0
2019-Jul-10 05:30N 44°18' E 009°14'0 0.2
2019-Jul-10 05:00N 44°18' E 009°14'4 7.7
2019-Jul-10 04:30N 44°15' E 009°17'5 9.5
2019-Jul-10 04:00N 44°11' E 009°19'5 9.6
2019-Jul-10 03:30N 44°06' E 009°21'5 9.4
2019-Jul-10 03:00N 44°02' E 009°23'4 8.7
2019-Jul-10 02:30N 43°58' E 009°25'4 8.7
2019-Jul-10 02:00N 43°54' E 009°28'3159.5
2019-Jul-10 02:00N 43°54' E 009°24'612.9 090 / 171018.710.8 26.019.926.0
2019-Jul-10 01:30N 43°50' E 009°30'4 8.7
2019-Jul-10 01:00N 43°46' E 009°33'4 8.9
2019-Jul-10 00:30N 43°42' E 009°35'4 8.9
2019-Jul-10 00:00N 43°38' E 009°38'4 8.5
2019-Jul-09 23:30N 43°34' E 009°42'5 9.1
2019-Jul-09 23:00N 43°33' E 009°48'5 9.3
2019-Jul-09 22:30N 43°31' E 009°54'5 9.2
2019-Jul-09 22:00N 43°30' E 009°60'5 9.4
2019-Jul-09 21:30N 43°30' E 010°06'5 9.1
2019-Jul-09 21:00N 43°31' E 010°13'4 8.1
2019-Jul-09 20:30N 43°33' E 010°17'1 1.1
2019-Jul-09 20:00N 43°33' E 010°18'0 0.0
2019-Jul-09 19:29N 43°33' E 010°18'0 0.0
2019-Jul-09 18:58N 43°33' E 010°18'0 0.0
2019-Jul-09 18:30N 43°33' E 010°18'0 0.0
2019-Jul-09 18:00N 43°33' E 010°18'0 0.0
2019-Jul-09 17:30N 43°33' E 010°18'0 0.0
2019-Jul-09 17:00N 43°33' E 010°18'0 0.0
2019-Jul-09 16:30N 43°33' E 010°18'0 0.0
2019-Jul-09 15:59N 43°33' E 010°18'0 0.0
2019-Jul-09 15:29N 43°33' E 010°18'3 7.0
2019-Jul-09 15:00N 43°30' E 010°18'3274.9 180 / 101020.7 27.620.528.3
2019-Jul-09 14:59N 43°33' E 010°18'0 0.0
2019-Jul-09 14:28N 43°33' E 010°18'0 0.0
2019-Jul-09 14:00N 43°33' E 010°18'0 0.0
2019-Jul-09 13:29N 43°33' E 010°18'0 0.0
2019-Jul-09 12:59N 43°33' E 010°18'0 0.0
2019-Jul-09 12:29N 43°33' E 010°18'0 0.0
2019-Jul-09 11:59N 43°33' E 010°18'0 0.0
2019-Jul-09 11:29N 43°33' E 010°18'0 0.0
2019-Jul-09 10:58N 43°33' E 010°18'0 0.0
2019-Jul-09 10:28N 43°33' E 010°18'0 0.0
2019-Jul-09 09:58N 43°33' E 010°18'0 0.0
2019-Jul-09 09:25N 43°33' E 010°18'0 0.0
2019-Jul-09 08:58N 43°33' E 010°18'0 0.0
2019-Jul-09 08:28N 43°33' E 010°18'0 0.0
2019-Jul-09 07:55N 43°33' E 010°18'0 0.0
2019-Jul-09 07:30N 43°33' E 010°18'0 0.0
2019-Jul-09 07:00N 43°33' E 010°18'0 0.0
2019-Jul-09 06:29N 43°33' E 010°18'3 7.1
2019-Jul-09 06:00N 43°30' E 010°18'3206.2 160 / 51021.810.8 27.022.325.0
2019-Jul-09 05:59N 43°33' E 010°18'0 0.0
2019-Jul-09 05:28N 43°33' E 010°18'0 0.0
2019-Jul-09 04:59N 43°33' E 010°18'1 1.1
2019-Jul-09 04:30N 43°33' E 010°17'3 5.4
2019-Jul-09 04:01N 43°31' E 010°15'4 8.4
2019-Jul-09 03:30N 43°27' E 010°13'611.6
2019-Jul-09 03:01N 43°21' E 010°11'611.6
2019-Jul-09 02:30N 43°16' E 010°09'611.7
2019-Jul-09 02:01N 43°10' E 010°07'2133.4
2019-Jul-09 02:00N 43°12' E 010°06'816.1 090 / 141021.810.8 27.025.128.0
2019-Jul-09 01:30N 43°04' E 010°05'611.9
2019-Jul-09 01:00N 42°58' E 010°04'611.8
2019-Jul-09 00:30N 42°53' E 010°02'611.4
2019-Jul-09 00:00N 42°47' E 010°01'611.3
2019-Jul-08 23:31N 42°42' E 010°04'611.9
2019-Jul-08 23:00N 42°38' E 010°10'711.8
2019-Jul-08 22:27N 42°33' E 010°16'511.9
2019-Jul-08 22:01N 42°29' E 010°21'611.9
2019-Jul-08 21:31N 42°25' E 010°26'612.0
2019-Jul-08 21:00N 42°19' E 010°30'612.0
2019-Jul-08 20:30N 42°14' E 010°34'611.9
2019-Jul-08 20:00N 42°09' E 010°38'611.1
2019-Jul-08 19:29N 42°05' E 010°44'611.9
2019-Jul-08 19:01N 42°04' E 010°52'1111.2
2019-Jul-08 18:00N 42°00' E 011°06'414.4 190 / 211020.810.8 29.025.226.0
2019-Jul-08 17:42N 41°60' E 011°12'711.6
2019-Jul-08 17:07N 41°58' E 011°20'111.3
2019-Jul-08 17:00N 41°58' E 011°22'17 1.5
2019-Jul-08 06:00N 42°06' E 011°42'0 0.0 160 / 101020.810.8 28.023.523.0
2019-Jul-08 05:00N 42°06' E 011°42'46 7.6 070 / 61023.8 25.722.823.1
2019-Jul-07 23:00N 41°27' E 012°13'917.8
2019-Jul-07 22:30N 41°22' E 012°23'6017.5
2019-Jul-07 19:04N 40°51' E 013°32'10135.3
2019-Jul-07 19:00N 40°42' E 013°36'758.3 190 / 171021.810.8 28.023.026.0
2019-Jul-07 18:52N 40°49' E 013°36'717.7
2019-Jul-07 18:27N 40°44' E 013°43'817.7
2019-Jul-07 18:00N 40°39' E 013°51'917.5
2019-Jul-07 17:30N 40°39' E 014°03'917.3
2019-Jul-07 17:00N 40°44' E 014°11'713.7
2019-Jul-07 16:30N 40°50' E 014°17'1 2.2
2019-Jul-07 15:58N 40°50' E 014°16'0 0.0
2019-Jul-07 15:28N 40°50' E 014°16'0 0.0
2019-Jul-07 14:58N 40°50' E 014°16'0 0.0
2019-Jul-07 14:28N 40°50' E 014°16'4 7.6
2019-Jul-07 14:00N 40°48' E 014°12'450.0 210 / 101023.810.8 27.021.125.0
2019-Jul-07 13:55N 40°50' E 014°16'0 0.0
2019-Jul-07 13:28N 40°50' E 014°16'0 0.0
2019-Jul-07 12:58N 40°50' E 014°16'0 0.0
2019-Jul-07 12:28N 40°50' E 014°16'0 0.0
2019-Jul-07 11:58N 40°50' E 014°16'0 0.0
2019-Jul-07 11:22N 40°50' E 014°16'0 0.0
2019-Jul-07 10:58N 40°50' E 014°16'0 0.0
2019-Jul-07 10:28N 40°50' E 014°16'4 7.6
2019-Jul-07 10:00N 40°48' E 014°12'4162.4 210 / 101023.810.8 27.021.125.0
2019-Jul-07 09:58N 40°50' E 014°16'0 0.0
2019-Jul-07 09:28N 40°50' E 014°16'0 0.0
2019-Jul-07 08:58N 40°50' E 014°16'0 0.0
2019-Jul-07 08:28N 40°50' E 014°16'0 0.0
2019-Jul-07 07:58N 40°50' E 014°16'0 0.0
2019-Jul-07 07:30N 40°50' E 014°16'0 0.0
2019-Jul-07 07:00N 40°50' E 014°16'4276.5
2019-Jul-07 07:00N 40°48' E 014°12'4 7.4 140 / 41023.810.8 27.021.224.0
2019-Jul-07 06:30N 40°50' E 014°16'0 0.0
2019-Jul-07 06:00N 40°50' E 014°16'0 0.0
2019-Jul-07 05:30N 40°50' E 014°16'0 0.0
2019-Jul-07 05:00N 40°50' E 014°16'0 0.2
2019-Jul-07 04:30N 40°50' E 014°16'2 3.4
2019-Jul-07 04:00N 40°49' E 014°17'815.8
2019-Jul-07 03:30N 40°41' E 014°17'916.8
2019-Jul-07 02:59N 40°32' E 014°19'1616.9
2019-Jul-07 02:00N 40°17' E 014°28'3193.0
2019-Jul-07 02:00N 40°18' E 014°24'1121.8 310 / 141024.810.8 26.021.728.0
2019-Jul-07 01:30N 40°10' E 014°33'917.1
2019-Jul-07 00:59N 40°02' E 014°38'817.2
2019-Jul-07 00:30N 39°54' E 014°43'916.9
2019-Jul-06 23:58N 39°46' E 014°48'816.8
2019-Jul-06 23:30N 39°39' E 014°52'6216.9
2019-Jul-06 19:50N 38°43' E 015°27'617.0
2019-Jul-06 19:27N 38°38' E 015°30'817.0
2019-Jul-06 19:00N 38°30' E 015°34'3224.5
2019-Jul-06 19:00N 38°30' E 015°30'1020.3 330 / 31023.810.8 26.921.821.5
2019-Jul-06 18:30N 38°23' E 015°39'815.1
2019-Jul-06 18:00N 38°16' E 015°41'714.1
2019-Jul-06 17:30N 38°10' E 015°37'816.1
2019-Jul-06 17:00N 38°02' E 015°33'918.3
2019-Jul-06 16:31N 37°54' E 015°28'1018.2
2019-Jul-06 15:59N 37°45' E 015°23'  

Dump ship's entire track history